Time;durP1;ratioP1;P1;durP2;ratioP2;P2;SDS_P1;SDS_P2;PMS_P1;PMS_P2;Temp;Humidity;BMP_temperature;BMP_pressure;BME280_temperature;BME280_humidity;BME280_pressure;Samples;Min_cycle;Max_cycle;Signal;HPM_P1;HPM_P2
2023/07/30 00:00:30;;;;;;;8.10;4.60;;;;;;;20.66;61.69;100060.20;105373;1259;65070;-49
2023/07/30 00:02:57;;;;;;;8.10;4.80;;;;;;;20.69;61.68;100059.73;105386;1254;302716;-51
2023/07/30 00:05:24;;;;;;;9.10;5.00;;;;;;;20.69;61.66;100054.30;105383;1259;63894;-49
2023/07/30 00:18:53;;;;;;;6.90;5.20;;;;;;;20.74;62.11;100057.89;102927;1288;604953;-50
2023/07/30 00:21:21;;;;;;;7.20;5.00;;;;;;;21.14;60.83;100056.48;104351;1276;108634;-50
2023/07/30 00:23:48;;;;;;;8.20;5.50;;;;;;;21.09;60.69;100055.84;104488;1267;59432;-50
2023/07/30 00:26:16;;;;;;;7.50;4.90;;;;;;;20.96;60.74;100050.16;104924;1264;63943;-55
2023/07/30 00:28:44;;;;;;;7.40;5.20;;;;;;;20.87;60.95;100043.23;104595;1269;61368;-55
2023/07/30 00:31:11;;;;;;;8.30;5.20;;;;;;;20.83;61.26;100035.80;104802;1270;63783;-55
2023/07/30 00:33:39;;;;;;;7.50;5.40;;;;;;;20.79;61.35;100036.79;104689;1270;59313;-55
2023/07/30 00:36:06;;;;;;;6.90;5.20;;;;;;;20.73;61.59;100037.20;104626;1270;59343;-54
2023/07/30 00:38:34;;;;;;;7.30;5.00;;;;;;;20.66;61.70;100035.44;104726;1264;62049;-56
2023/07/30 00:41:02;;;;;;;9.60;5.80;;;;;;;20.61;61.80;100035.23;104674;1268;61315;-58
2023/07/30 00:43:29;;;;;;;8.90;5.30;;;;;;;20.54;61.88;100037.45;105173;1268;63874;-56
2023/07/30 00:45:57;;;;;;;6.20;4.70;;;;;;;20.48;62.07;100039.66;104783;1264;59663;-56
2023/07/30 00:48:24;;;;;;;8.70;5.70;;;;;;;20.44;62.16;100040.26;104722;1264;62306;-57
2023/07/30 00:50:52;;;;;;;7.90;4.80;;;;;;;20.41;62.24;100042.54;104776;1263;62980;-56
2023/07/30 00:53:19;;;;;;;9.10;5.60;;;;;;;20.39;62.31;100042.02;104872;1269;60131;-56
2023/07/30 00:55:47;;;;;;;8.40;5.40;;;;;;;20.36;62.42;100041.19;104729;1269;62462;-56
2023/07/30 00:58:15;;;;;;;7.90;5.50;;;;;;;20.31;62.45;100041.08;104864;1267;59748;-57
2023/07/30 01:00:42;;;;;;;10.80;5.00;;;;;;;20.26;62.42;100039.48;104939;1266;59795;-55
2023/07/30 01:03:10;;;;;;;9.00;5.50;;;;;;;20.19;62.53;100030.14;104542;1264;62825;-56
2023/07/30 01:05:38;;;;;;;6.50;5.00;;;;;;;20.17;62.58;100031.11;104684;1264;61402;-56
2023/07/30 01:08:05;;;;;;;10.10;5.50;;;;;;;20.18;62.46;100036.75;104739;1269;62727;-56
2023/07/30 01:10:33;;;;;;;7.00;5.10;;;;;;;20.14;62.28;100032.56;104771;1267;59890;-56
2023/07/30 01:13:01;;;;;;;8.90;5.30;;;;;;;20.08;62.29;100027.92;104676;1263;59788;-57
2023/07/30 01:15:29;;;;;;;9.40;5.10;;;;;;;20.04;62.33;100030.83;105843;1264;62820;-56
2023/07/30 01:17:56;;;;;;;8.00;5.60;;;;;;;19.99;62.53;100038.05;104614;1269;61381;-57
2023/07/30 01:20:24;;;;;;;8.30;5.60;;;;;;;19.96;62.48;100037.69;104745;1269;63782;-57
2023/07/30 01:22:52;;;;;;;8.00;5.70;;;;;;;19.96;62.34;100034.11;104737;1270;59857;-55
2023/07/30 01:25:19;;;;;;;7.10;4.90;;;;;;;19.97;62.48;100033.83;104826;1267;59726;-54
2023/07/30 01:27:49;;;;;;;9.80;6.60;;;;;;;19.97;62.52;100032.80;104532;1263;64059;-55
2023/07/30 01:30:18;;;;;;;8.60;5.60;;;;;;;19.94;62.57;100032.28;104776;1264;61487;-57
2023/07/30 01:32:46;;;;;;;8.30;6.10;;;;;;;19.90;62.74;100029.62;104810;1267;63777;-53
2023/07/30 01:35:14;;;;;;;8.90;6.10;;;;;;;19.84;62.83;100032.36;104889;1264;59785;-55
2023/07/30 01:37:41;;;;;;;11.60;5.90;;;;;;;19.78;63.06;100035.61;104785;1269;59736;-55
2023/07/30 01:40:10;;;;;;;8.50;5.80;;;;;;;19.74;63.09;100035.65;104602;1264;64128;-57
2023/07/30 01:42:37;;;;;;;9.00;5.90;;;;;;;19.73;63.17;100035.85;104858;1267;60269;-56
2023/07/30 01:45:06;;;;;;;7.50;5.20;;;;;;;19.75;63.06;100037.85;104640;1270;62533;-54
2023/07/30 01:47:33;;;;;;;7.10;5.60;;;;;;;19.75;63.04;100042.79;105057;1267;59704;-52
2023/07/30 01:50:01;;;;;;;8.30;5.80;;;;;;;19.75;63.05;100042.83;104759;1269;59683;-54
2023/07/30 01:52:29;;;;;;;7.70;5.60;;;;;;;19.71;62.96;100040.73;104614;1264;64121;-54
2023/07/30 01:54:58;;;;;;;9.30;6.40;;;;;;;19.66;62.95;100041.34;104604;1263;61345;-53
2023/07/30 01:57:26;;;;;;;8.40;6.30;;;;;;;19.61;63.18;100042.59;104996;1269;63900;-54
2023/07/30 01:59:53;;;;;;;9.10;6.30;;;;;;;19.59;63.25;100043.89;104685;1269;59651;-55
2023/07/30 02:02:21;;;;;;;10.90;5.40;;;;;;;19.59;63.26;100042.02;104651;1269;59590;-55
2023/07/30 02:04:49;;;;;;;9.20;5.80;;;;;;;19.60;63.15;100042.80;104780;1264;62853;-57
2023/07/30 02:07:16;;;;;;;9.90;6.20;;;;;;;19.58;63.23;100042.36;104753;1263;60152;-56
2023/07/30 02:09:44;;;;;;;10.80;6.40;;;;;;;19.56;62.99;100045.36;104715;1264;63700;-56
2023/07/30 02:12:11;;;;;;;9.00;6.10;;;;;;;19.52;62.92;100044.15;104833;1269;59717;-55
2023/07/30 02:14:39;;;;;;;8.50;6.00;;;;;;;19.48;62.93;100045.55;104544;1269;59583;-56
2023/07/30 02:17:06;;;;;;;7.50;6.00;;;;;;;19.41;62.92;100049.28;104904;1263;64133;-57
2023/07/30 02:19:34;;;;;;;9.30;6.10;;;;;;;19.35;63.01;100043.23;104519;1269;60404;-57
2023/07/30 02:22:01;;;;;;;8.00;6.40;;;;;;;19.33;63.25;100044.72;104914;1264;63834;-58
2023/07/30 02:24:29;;;;;;;8.10;5.40;;;;;;;19.32;63.40;100043.77;104924;1266;59698;-56
2023/07/30 02:26:57;;;;;;;8.20;5.60;;;;;;;19.30;63.54;100047.73;104770;1261;59582;-56
2023/07/30 02:29:25;;;;;;;9.80;6.20;;;;;;;19.28;63.66;100049.02;105108;1263;62834;-58
2023/07/30 02:31:52;;;;;;;8.70;6.30;;;;;;;19.26;63.70;100049.61;104989;1261;61389;-57
2023/07/30 02:34:20;;;;;;;8.90;5.60;;;;;;;19.24;63.71;100045.64;104767;1264;62528;-56
2023/07/30 02:36:49;;;;;;;7.50;5.80;;;;;;;19.24;63.71;100056.08;105107;1261;59729;-56
2023/07/30 02:39:16;;;;;;;8.80;5.70;;;;;;;19.25;63.80;100060.11;104957;1260;59838;-56
2023/07/30 02:41:44;;;;;;;9.10;5.70;;;;;;;19.26;63.76;100064.27;104964;1266;64107;-56
2023/07/30 02:44:11;;;;;;;11.10;5.50;;;;;;;19.24;63.92;100067.48;105409;1260;61314;-56
2023/07/30 02:46:39;;;;;;;9.30;6.30;;;;;;;19.23;63.84;100070.30;104862;1261;63727;-57
2023/07/30 02:49:06;;;;;;;11.30;6.40;;;;;;;19.20;63.96;100069.57;105022;1260;59745;-54
2023/07/30 02:51:34;;;;;;;7.70;6.00;;;;;;;19.17;64.01;100073.02;104825;1260;59641;-54
2023/07/30 02:54:06;;;;;;;10.60;6.00;;;;;;;19.15;64.11;100075.20;104990;1260;64126;-54
2023/07/30 02:56:34;;;;;;;7.60;5.30;;;;;;;19.16;64.18;100079.16;105191;1261;62764;-55
2023/07/30 02:59:02;;;;;;;7.60;5.90;;;;;;;19.16;64.26;100081.83;104816;1261;64251;-54
2023/07/30 03:01:29;;;;;;;7.10;5.90;;;;;;;19.16;64.40;100084.83;105100;1260;61182;-56
2023/07/30 03:03:57;;;;;;;7.90;6.20;;;;;;;19.15;64.55;100081.96;105061;1263;59571;-53
2023/07/30 03:06:24;;;;;;;8.80;6.40;;;;;;;19.13;64.67;100073.95;104862;1260;64066;-54
2023/07/30 03:08:52;;;;;;;8.10;6.70;;;;;;;19.13;64.86;100069.59;105204;1261;61362;-53
2023/07/30 03:11:22;;;;;;;10.30;6.90;;;;;;;19.17;64.94;100071.61;105039;1260;63828;-53
2023/07/30 03:13:49;;;;;;;7.20;5.30;;;;;;;19.22;64.61;100076.48;105231;1260;59730;-53
2023/07/30 03:16:17;;;;;;;7.90;6.60;;;;;;;19.25;64.48;100078.24;104933;1260;59743;-53
2023/07/30 03:18:44;;;;;;;8.90;6.40;;;;;;;19.25;64.63;100080.17;104927;1260;62827;-52
2023/07/30 03:21:12;;;;;;;9.80;7.00;;;;;;;19.23;64.64;100078.27;104986;1260;61299;-58
2023/07/30 03:23:40;;;;;;;10.50;7.10;;;;;;;19.22;64.60;100081.32;105060;1261;63749;-56
2023/07/30 03:26:08;;;;;;;8.70;6.90;;;;;;;19.21;64.66;100082.46;104997;1260;59759;-55
2023/07/30 03:28:36;;;;;;;8.90;7.10;;;;;;;19.24;64.72;100084.73;105078;1263;59598;-55
2023/07/30 03:31:07;;;;;;;11.10;7.20;;;;;;;19.29;64.65;100083.39;104877;1260;62926;-56
2023/07/30 03:33:35;;;;;;;10.20;6.40;;;;;;;19.35;64.64;100080.54;104926;1260;61322;-57
2023/07/30 03:36:02;;;;;;;13.50;7.20;;;;;;;19.40;64.54;100079.55;104905;1261;64424;-56
2023/07/30 03:38:30;;;;;;;8.90;6.60;;;;;;;19.44;64.41;100081.91;105007;1260;59747;-56
2023/07/30 03:40:58;;;;;;;9.40;6.80;;;;;;;19.46;64.48;100081.52;104851;1260;59663;-56
2023/07/30 03:43:25;;;;;;;8.40;6.30;;;;;;;19.48;64.31;100077.97;105034;1260;64259;-55
2023/07/30 03:45:52;;;;;;;8.60;6.70;;;;;;;19.52;64.16;100076.78;104958;1263;61385;-56
2023/07/30 03:50:05;;;;;;;8.80;6.60;;;;;;;19.46;64.53;100069.85;106277;1288;600313;-92
2023/07/30 03:52:35;;;;;;;9.20;6.30;;;;;;;19.64;63.75;100064.92;107894;1267;59222;-84
2023/07/30 03:55:04;;;;;;;9.60;7.20;;;;;;;19.71;63.73;100065.69;108466;1266;56902;-85
2023/07/30 03:57:31;;;;;;;8.80;6.60;;;;;;;19.78;63.65;100064.50;106628;1267;62132;-85
2023/07/30 04:00:00;;;;;;;8.50;6.20;;;;;;;19.84;63.54;100065.52;105220;1272;61523;-85
2023/07/30 04:04:34;;;;;;;8.20;6.10;;;;;;;19.81;63.63;100064.98;103795;1291;602312;-93
2023/07/30 04:07:02;;;;;;;8.70;6.20;;;;;;;20.02;62.97;100062.05;106402;1268;59332;-83
2023/07/30 04:09:30;;;;;;;9.90;6.70;;;;;;;20.10;62.75;100059.24;107950;1268;57095;-84
2023/07/30 04:11:58;;;;;;;7.80;6.10;;;;;;;20.14;62.39;100061.88;105100;1268;63273;-87
2023/07/30 04:14:26;;;;;;;9.60;6.80;;;;;;;20.19;62.13;100064.20;104756;1268;60116;-84
2023/07/30 04:16:53;;;;;;;8.30;6.50;;;;;;;20.23;61.98;100063.51;104897;1269;63683;-85
2023/07/30 04:19:21;;;;;;;9.20;6.50;;;;;;;20.26;61.93;100062.58;104625;1268;59354;-88
2023/07/30 04:21:48;;;;;;;8.30;5.70;;;;;;;20.32;61.90;100064.34;104922;1268;59418;-85
2023/07/30 04:24:18;;;;;;;7.10;5.70;;;;;;;20.39;61.88;100066.69;105773;1269;62078;-86
2023/07/30 04:26:45;;;;;;;9.20;7.00;;;;;;;20.46;61.88;100065.70;105583;1268;60180;-86
2023/07/30 04:29:14;;;;;;;8.40;6.30;;;;;;;20.52;61.93;100063.21;105617;1269;63716;-86
2023/07/30 04:31:41;;;;;;;9.30;5.90;;;;;;;20.57;61.77;100059.17;105085;1268;59768;-89
2023/07/30 04:34:09;;;;;;;7.70;6.00;;;;;;;20.62;61.81;100056.13;106185;1268;59604;-88
2023/07/30 04:36:37;;;;;;;9.70;6.60;;;;;;;20.66;61.80;100055.05;107562;1268;64202;-86
2023/07/30 04:39:05;;;;;;;7.40;5.20;;;;;;;20.77;61.50;100054.95;106024;1268;60299;-87
2023/07/30 04:41:35;;;;;;;9.50;6.10;;;;;;;20.88;61.54;100054.88;105275;1267;63730;-88
2023/07/30 04:44:04;;;;;;;8.00;5.60;;;;;;;21.00;61.55;100059.09;105696;1269;59511;-87
2023/07/30 04:46:33;;;;;;;8.40;5.90;;;;;;;21.09;61.45;100060.20;106561;1268;59033;-85
2023/07/30 04:49:02;;;;;;;9.60;6.20;;;;;;;21.15;61.44;100062.13;105660;1262;64136;-85
2023/07/30 04:51:29;;;;;;;8.70;6.10;;;;;;;21.20;61.57;100062.59;105702;1266;60147;-84
2023/07/30 04:53:57;;;;;;;10.60;5.90;;;;;;;21.24;61.65;100064.51;105849;1263;62505;-85
2023/07/30 04:56:26;;;;;;;8.30;5.70;;;;;;;21.31;61.34;100066.63;105600;1264;59780;-84
2023/07/30 04:58:54;;;;;;;7.70;6.00;;;;;;;21.41;61.11;100067.48;105437;1265;59602;-85
2023/07/30 05:01:21;;;;;;;7.50;5.30;;;;;;;21.49;61.03;100069.83;106956;1261;64049;-84
2023/07/30 05:03:49;;;;;;;8.20;5.90;;;;;;;21.55;60.91;100071.70;105711;1262;61609;-86
2023/07/30 05:06:16;;;;;;;7.70;5.90;;;;;;;21.60;60.74;100074.44;106058;1262;62479;-86
2023/07/30 05:08:44;;;;;;;7.90;6.40;;;;;;;21.65;60.48;100075.52;106736;1262;59722;-86
2023/07/30 05:11:11;;;;;;;8.30;5.90;;;;;;;21.72;60.03;100076.23;107200;1260;59544;-85
2023/07/30 05:13:39;;;;;;;9.90;5.70;;;;;;;21.76;59.97;100066.96;105934;1262;64105;-86
2023/07/30 05:16:06;;;;;;;7.90;5.50;;;;;;;21.83;59.82;100065.58;106070;1262;60248;-84
2023/07/30 05:18:34;;;;;;;6.20;4.60;;;;;;;21.91;59.79;100064.42;106583;1260;63789;-84
2023/07/30 05:21:01;;;;;;;10.20;5.60;;;;;;;22.00;59.07;100070.81;105763;1262;59866;-87
2023/07/30 05:23:29;;;;;;;10.60;5.60;;;;;;;22.05;58.79;100065.86;105883;1261;59684;-87
2023/07/30 05:25:56;;;;;;;8.30;5.60;;;;;;;22.12;58.72;100064.05;106016;1256;62915;-83
2023/07/30 05:28:24;;;;;;;7.90;6.00;;;;;;;22.19;58.57;100061.70;106986;1255;61475;-87
2023/07/30 05:30:51;;;;;;;7.10;5.10;;;;;;;22.25;58.79;100059.52;106470;1259;63762;-84
2023/07/30 05:33:19;;;;;;;7.50;5.10;;;;;;;22.34;58.61;100057.56;107028;1256;59680;-85
2023/07/30 05:35:47;;;;;;;7.70;5.50;;;;;;;22.42;58.56;100052.10;106382;1255;59683;-88
2023/07/30 05:38:15;;;;;;;8.00;5.10;;;;;;;22.52;58.68;100055.60;106788;1256;64266;-84
2023/07/30 05:40:42;;;;;;;7.90;5.90;;;;;;;22.63;58.67;100060.73;106574;1255;61466;-84
2023/07/30 05:43:10;;;;;;;8.20;5.20;;;;;;;22.75;58.42;100060.45;106658;1256;62539;-87
2023/07/30 05:45:37;;;;;;;7.80;5.70;;;;;;;22.88;58.48;100064.20;107060;1255;59735;-83
2023/07/30 05:48:05;;;;;;;8.70;6.00;;;;;;;22.99;58.54;100067.01;107558;1256;59602;-89
2023/07/30 05:50:32;;;;;;;7.50;5.50;;;;;;;23.09;58.04;100065.72;106962;1260;64082;-89
2023/07/30 05:53:00;;;;;;;6.40;5.20;;;;;;;23.18;57.65;100064.86;106121;1255;62348;-90
2023/07/30 05:55:27;;;;;;;12.50;5.90;;;;;;;23.25;57.40;100064.30;106328;1258;62603;-88
2023/07/30 05:57:55;;;;;;;7.40;5.50;;;;;;;23.33;57.47;100069.01;106327;1258;59770;-88
2023/07/30 06:00:24;;;;;;;7.30;4.50;;;;;;;23.44;57.12;100069.77;107118;1256;59526;-85
2023/07/30 06:02:51;;;;;;;7.60;5.50;;;;;;;23.57;56.77;100063.58;107025;1255;62852;-85
2023/07/30 06:05:19;;;;;;;7.40;5.60;;;;;;;23.66;56.49;100060.42;106068;1256;61478;-89
2023/07/30 06:07:46;;;;;;;9.00;6.00;;;;;;;23.77;56.39;100061.01;106168;1256;63742;-86
2023/07/30 06:10:14;;;;;;;9.20;5.30;;;;;;;23.85;55.92;100057.59;106661;1256;59511;-90
2023/07/30 06:12:41;;;;;;;7.10;5.30;;;;;;;23.89;55.64;100053.31;106925;1260;59736;-88
2023/07/30 06:15:10;;;;;;;7.00;5.00;;;;;;;23.93;55.64;100045.25;106335;1261;64094;-85
2023/07/30 06:17:38;;;;;;;8.40;5.60;;;;;;;23.99;55.62;100043.47;106339;1256;61670;-86
2023/07/30 06:20:06;;;;;;;7.70;5.20;;;;;;;24.11;55.92;100038.56;106963;1257;62493;-82
2023/07/30 06:22:33;;;;;;;9.30;5.80;;;;;;;24.22;56.12;100038.17;106364;1256;59640;-87
2023/07/30 06:25:01;;;;;;;7.70;4.80;;;;;;;24.34;56.19;100043.11;106802;1260;59513;-88
2023/07/30 06:27:29;;;;;;;8.40;5.90;;;;;;;24.44;56.19;100043.76;106767;1255;75268;-87
2023/07/30 06:29:56;;;;;;;8.30;5.10;;;;;;;24.52;55.89;100044.14;106504;1260;61540;-89
2023/07/30 06:32:24;;;;;;;7.20;5.30;;;;;;;24.57;55.48;100040.39;106405;1260;62481;-85
2023/07/30 06:34:51;;;;;;;6.40;4.60;;;;;;;24.57;55.52;100037.77;106986;1257;59002;-88
2023/07/30 06:37:19;;;;;;;6.70;5.00;;;;;;;24.58;55.25;100041.78;105796;1261;59661;-89
2023/07/30 06:39:46;;;;;;;6.30;4.70;;;;;;;24.59;55.28;100041.86;106222;1257;63001;-89
2023/07/30 06:42:13;;;;;;;7.50;5.00;;;;;;;24.63;55.32;100040.33;106793;1261;61058;-88
2023/07/30 06:44:41;;;;;;;7.10;4.90;;;;;;;24.69;54.92;100039.77;105992;1257;63795;-88
2023/07/30 06:47:08;;;;;;;7.10;5.10;;;;;;;24.71;54.88;100038.32;106302;1262;59687;-87
2023/07/30 06:49:36;;;;;;;7.00;5.10;;;;;;;24.71;54.97;100037.45;106057;1257;59690;-91
2023/07/30 06:52:04;;;;;;;7.90;5.30;;;;;;;24.73;55.24;100035.41;106369;1257;64340;-90
2023/07/30 06:54:32;;;;;;;6.80;4.70;;;;;;;24.76;55.75;100032.98;107001;1259;61391;-90
2023/07/30 06:56:59;;;;;;;7.40;4.80;;;;;;;24.84;55.78;100034.33;106763;1258;63790;-88
2023/07/30 06:59:27;;;;;;;9.00;4.60;;;;;;;24.95;55.73;100029.64;106645;1258;59623;-90
2023/07/30 07:01:54;;;;;;;7.70;4.60;;;;;;;25.06;55.40;100026.35;106079;1257;59672;-93
2023/07/30 07:04:21;;;;;;;8.20;4.70;;;;;;;25.16;55.06;100027.05;106927;1257;63045;-89
2023/07/30 07:06:49;;;;;;;5.70;3.90;;;;;;;25.26;54.81;100029.80;106329;1260;62563;-92
2023/07/30 07:09:17;;;;;;;6.50;4.00;;;;;;;25.35;53.52;100029.27;107259;1257;62494;-90
2023/07/30 07:11:45;;;;;;;6.70;3.80;;;;;;;25.44;52.80;100027.27;106997;1258;59683;-87
2023/07/30 07:14:12;;;;;;;8.30;4.60;;;;;;;25.51;52.93;100026.76;106479;1257;59752;-90
2023/07/30 07:16:40;;;;;;;9.20;4.30;;;;;;;25.59;53.00;100026.80;106210;1255;64052;-89
2023/07/30 07:19:08;;;;;;;6.60;3.90;;;;;;;25.67;51.83;100025.76;107404;1256;61320;-90
2023/07/30 07:21:35;;;;;;;5.30;3.50;;;;;;;25.77;50.91;100026.81;107013;1261;63732;-90
2023/07/30 07:24:03;;;;;;;10.20;3.70;;;;;;;25.84;49.97;100029.73;107290;1256;59620;-88
2023/07/30 07:26:31;;;;;;;6.10;3.30;;;;;;;25.91;48.98;100026.02;106682;1257;59658;-88
2023/07/30 07:28:58;;;;;;;5.10;3.20;;;;;;;25.97;48.40;100028.73;106338;1256;62937;-87
2023/07/30 07:31:26;;;;;;;5.30;3.00;;;;;;;26.03;47.72;100027.27;106684;1260;61541;-89
2023/07/30 07:33:54;;;;;;;5.10;3.00;;;;;;;26.10;47.29;100024.06;106928;1260;63750;-88
2023/07/30 07:36:21;;;;;;;4.80;3.00;;;;;;;26.18;47.17;100021.06;105911;1263;59364;-87
2023/07/30 07:38:49;;;;;;;5.00;3.30;;;;;;;26.23;46.30;100024.15;106107;1261;59768;-82
2023/07/30 07:41:16;;;;;;;4.70;3.00;;;;;;;26.28;46.22;100024.54;105988;1258;64237;-87
2023/07/30 07:43:46;;;;;;;5.90;3.90;;;;;;;26.34;46.59;100023.05;107126;1261;61412;-87
2023/07/30 07:46:13;;;;;;;7.10;4.20;;;;;;;26.43;46.91;100023.34;106205;1258;62472;-88
2023/07/30 07:48:41;;;;;;;5.80;4.00;;;;;;;26.51;46.43;100022.60;106164;1259;59714;-86
2023/07/30 07:51:10;;;;;;;7.00;4.00;;;;;;;26.60;45.94;100026.27;106050;1260;59517;-87
2023/07/30 07:53:37;;;;;;;6.00;4.00;;;;;;;26.70;44.96;100027.62;106277;1261;64107;-85
2023/07/30 07:56:05;;;;;;;5.70;3.80;;;;;;;26.77;44.35;100028.15;106426;1257;61370;-87
2023/07/30 07:58:32;;;;;;;5.70;4.10;;;;;;;26.81;44.50;100018.25;109200;1257;62486;-86
2023/07/30 08:01:00;;;;;;;5.80;4.00;;;;;;;26.87;44.58;100016.70;109220;1258;59223;-86
2023/07/30 08:03:27;;;;;;;5.20;3.40;;;;;;;26.93;44.74;100010.00;109186;1258;56997;-85
2023/07/30 08:05:55;;;;;;;5.60;4.10;;;;;;;27.02;44.86;100004.34;109215;1255;63014;-88
2023/07/30 08:08:25;;;;;;;5.60;3.10;;;;;;;27.12;44.97;100003.61;109235;1255;71100;-87
2023/07/30 08:10:53;;;;;;;8.70;4.10;;;;;;;27.24;44.12;100006.46;109127;1261;62428;-87
2023/07/30 08:13:21;;;;;;;6.40;3.60;;;;;;;27.35;44.19;100005.17;109137;1256;57993;-85
2023/07/30 08:15:51;;;;;;;5.30;3.40;;;;;;;27.44;43.84;100004.80;109076;1255;60890;-86
2023/07/30 08:18:18;;;;;;;5.30;3.50;;;;;;;27.52;44.09;99999.75;109138;1256;63744;-87
2023/07/30 08:20:46;;;;;;;6.10;3.60;;;;;;;27.61;44.22;100000.98;108891;1255;60165;-87
2023/07/30 08:23:14;;;;;;;6.30;3.40;;;;;;;27.70;43.93;100000.96;108836;1255;63697;-81
2023/07/30 08:25:41;;;;;;;6.20;3.90;;;;;;;27.80;44.06;99997.98;108390;1261;59296;-84
2023/07/30 08:28:08;;;;;;;6.00;4.30;;;;;;;27.91;44.95;99995.31;108517;1256;59230;-90
2023/07/30 08:30:36;;;;;;;5.60;3.80;;;;;;;28.02;44.93;99996.34;107277;1261;64968;-83
2023/07/30 08:33:03;;;;;;;6.20;4.30;;;;;;;28.06;44.19;99998.68;105906;1261;60466;-86
2023/07/30 08:35:31;;;;;;;5.70;4.00;;;;;;;28.07;44.18;100000.75;106318;1261;63781;-91
2023/07/30 08:37:58;;;;;;;5.70;3.80;;;;;;;28.06;43.86;99999.23;108181;1260;60461;-87
2023/07/30 08:40:26;;;;;;;5.90;3.80;;;;;;;28.01;43.73;99999.15;109065;1256;58257;-88
2023/07/30 08:42:53;;;;;;;5.90;3.70;;;;;;;27.95;43.99;100000.59;108965;1256;65116;-86
2023/07/30 08:45:21;;;;;;;5.40;3.70;;;;;;;27.92;44.12;100000.84;108993;1258;60311;-88
2023/07/30 08:47:48;;;;;;;6.20;4.00;;;;;;;27.90;44.55;100000.36;109050;1256;63734;-85
2023/07/30 08:50:16;;;;;;;8.30;3.60;;;;;;;27.87;44.34;100006.59;108951;1256;58278;-87
2023/07/30 08:52:43;;;;;;;6.80;4.10;;;;;;;27.84;44.16;100004.33;107484;1261;60335;-88
2023/07/30 08:55:11;;;;;;;5.60;3.50;;;;;;;27.81;44.25;100002.55;106018;1257;65019;-86
2023/07/30 08:57:39;;;;;;;6.50;3.30;;;;;;;27.76;44.61;100010.52;106582;1256;61453;-90
2023/07/30 09:00:10;;;;;;;5.90;3.70;;;;;;;27.68;44.54;100007.81;105776;1257;63682;-87
2023/07/30 09:02:47;;;;;;;5.60;3.30;;;;;;;27.58;44.60;100006.66;106201;1257;60554;-88
2023/07/30 09:05:15;;;;;;;5.20;3.40;;;;;;;27.49;44.47;100009.70;106068;1263;60474;-85
2023/07/30 09:07:43;;;;;;;5.60;3.20;;;;;;;27.40;44.76;100010.14;105674;1256;63725;-88
2023/07/30 09:10:11;;;;;;;6.80;3.80;;;;;;;27.30;45.16;100008.60;106210;1256;61424;-85
2023/07/30 09:12:38;;;;;;;5.40;3.50;;;;;;;27.21;45.16;100007.94;106288;1256;63837;-88
2023/07/30 09:15:06;;;;;;;5.60;3.40;;;;;;;27.15;45.40;100006.32;105780;1257;60525;-88
2023/07/30 09:17:34;;;;;;;6.70;3.70;;;;;;;27.11;45.82;100003.81;105849;1260;60476;-85
2023/07/30 09:20:03;;;;;;;6.10;3.80;;;;;;;27.07;45.82;100004.98;106596;1257;64934;-96
2023/07/30 09:22:40;;;;;;;5.50;3.40;;;;;;;27.03;45.97;100002.14;105782;1261;61293;-86
2023/07/30 09:25:08;;;;;;;5.50;3.60;;;;;;;27.00;46.42;100001.83;106144;1260;63722;-86
2023/07/30 09:27:36;;;;;;;5.30;3.60;;;;;;;26.97;46.89;100005.54;105599;1261;61010;-90
2023/07/30 09:30:05;;;;;;;5.80;3.10;;;;;;;26.94;47.36;100006.73;105773;1256;61181;-85
2023/07/30 09:32:34;;;;;;;4.60;2.90;;;;;;;26.94;47.76;100009.05;106157;1258;65044;-89
2023/07/30 09:35:08;;;;;;;5.00;2.90;;;;;;;26.91;47.06;100006.82;105759;1261;61457;-90
2023/07/30 09:37:39;;;;;;;6.60;3.30;;;;;;;26.85;46.43;100009.64;105791;1258;63722;-86
2023/07/30 09:40:12;;;;;;;5.30;2.90;;;;;;;26.80;46.83;100011.36;106210;1260;60508;-84
2023/07/30 09:42:44;;;;;;;5.40;2.80;;;;;;;26.75;46.79;100011.20;106050;1262;60410;-86
2023/07/30 09:45:21;;;;;;;6.20;3.20;;;;;;;26.70;47.03;100005.34;105788;1259;63646;-85
2023/07/30 09:47:49;;;;;;;7.00;3.10;;;;;;;26.66;47.30;100008.18;105962;1257;61445;-86
2023/07/30 09:50:17;;;;;;;5.90;3.40;;;;;;;26.62;48.11;100012.05;105749;1257;63807;-86
2023/07/30 09:52:44;;;;;;;6.20;3.60;;;;;;;26.53;49.51;100004.30;106001;1262;60662;-85
2023/07/30 09:55:12;;;;;;;13.20;4.10;;;;;;;26.44;50.70;100003.90;105922;1256;60458;-86
2023/07/30 09:57:39;;;;;;;6.90;3.90;;;;;;;26.33;51.17;100001.57;106283;1262;64918;-88
2023/07/30 10:00:10;;;;;;;6.10;3.80;;;;;;;26.23;52.46;100001.60;106350;1257;60459;-86
2023/07/30 10:02:42;;;;;;;5.80;3.60;;;;;;;26.17;53.73;99996.55;105829;1264;63877;-87
2023/07/30 10:05:22;;;;;;;7.20;4.10;;;;;;;26.12;54.58;99989.13;106455;1262;61609;-88
2023/07/30 10:08:00;;;;;;;10.60;4.30;;;;;;;26.10;55.16;99985.19;106543;1260;60410;-86
2023/07/30 10:11:00;;;;;;;6.00;4.00;;;;;;;26.07;56.66;99980.76;106518;1262;65682;-89
2023/07/30 10:13:40;;;;;;;6.80;4.70;;;;;;;26.07;57.87;99974.50;106325;1258;70372;-88
2023/07/30 10:16:11;;;;;;;7.30;3.70;;;;;;;26.11;58.05;99967.85;107169;1257;62485;-88
2023/07/30 10:18:45;;;;;;;5.60;3.70;;;;;;;26.18;58.32;99966.17;106512;1257;60469;-88
2023/07/30 10:21:22;;;;;;;5.80;3.60;;;;;;;26.33;58.31;99964.23;106247;1260;60563;-89
2023/07/30 10:23:57;;;;;;;7.70;3.40;;;;;;;26.51;58.13;99953.39;106387;1257;63662;-88
2023/07/30 10:26:32;;;;;;;5.40;3.10;;;;;;;26.69;57.77;99948.59;105710;1262;61514;-84
2023/07/30 10:29:16;;;;;;;5.60;3.00;;;;;;;26.89;57.01;99948.59;107230;1257;62460;-81
2023/07/30 10:31:57;;;;;;;6.10;3.00;;;;;;;27.07;56.68;99950.92;107537;1260;60579;-84
2023/07/30 10:34:46;;;;;;;5.00;3.00;;;;;;;27.21;55.58;99951.10;106463;1257;60394;-83
2023/07/30 10:37:20;;;;;;;4.70;3.10;;;;;;;27.34;54.11;99955.95;106047;1261;65030;-85
2023/07/30 10:39:48;;;;;;;6.00;3.30;;;;;;;27.44;53.04;99960.45;105508;1262;61349;-85
2023/07/30 10:42:18;;;;;;;6.10;3.30;;;;;;;27.55;52.64;99959.65;106098;1262;63960;-84
2023/07/30 10:44:45;;;;;;;5.30;3.10;;;;;;;27.66;52.57;99956.96;105750;1258;60667;-85
2023/07/30 10:47:13;;;;;;;7.00;3.60;;;;;;;27.78;53.36;99953.04;106357;1257;60526;-83
2023/07/30 10:50:01;;;;;;;5.60;3.60;;;;;;;27.90;53.83;99950.73;109228;1257;64890;-84
2023/07/30 10:52:28;;;;;;;7.20;3.70;;;;;;;27.99;53.43;99946.40;109217;1257;60285;-81
2023/07/30 10:55:00;;;;;;;4.90;3.00;;;;;;;28.08;52.71;99948.25;106736;1257;72923;-58
2023/07/30 10:57:34;;;;;;;5.70;3.70;;;;;;;28.17;50.55;99945.88;105797;1259;60432;-58
2023/07/30 11:00:02;;;;;;;5.30;3.50;;;;;;;28.24;49.59;99942.84;105285;1257;60533;-59
2023/07/30 11:02:30;;;;;;;5.40;3.60;;;;;;;28.32;49.82;99941.86;105359;1260;63687;-56
2023/07/30 11:04:58;;;;;;;4.80;3.40;;;;;;;28.44;49.78;99939.51;105350;1257;62111;-60
2023/07/30 11:07:25;;;;;;;5.50;3.20;;;;;;;28.57;50.01;99933.78;105344;1255;62876;-58
2023/07/30 11:10:02;;;;;;;6.10;3.60;;;;;;;28.69;49.82;99926.69;105224;1259;60540;-56
2023/07/30 11:12:30;;;;;;;5.50;3.30;;;;;;;28.83;49.35;99921.14;105319;1257;60470;-66
2023/07/30 11:15:02;;;;;;;5.00;2.80;;;;;;;28.92;48.63;99913.76;105105;1263;64932;-57
2023/07/30 11:17:30;;;;;;;6.10;3.40;;;;;;;28.99;48.64;99913.33;105389;1259;61713;-57
2023/07/30 11:19:57;;;;;;;6.40;3.60;;;;;;;29.06;48.32;99908.27;105276;1256;63749;-60
2023/07/30 11:22:32;;;;;;;4.70;3.00;;;;;;;29.11;48.32;99903.90;105372;1257;60515;-56
2023/07/30 11:25:01;;;;;;;6.00;3.70;;;;;;;29.16;48.13;99900.55;106514;1259;60460;-58
2023/07/30 11:27:29;;;;;;;5.10;3.20;;;;;;;29.20;48.09;99896.76;105568;1258;64924;-59
2023/07/30 11:29:57;;;;;;;6.20;3.60;;;;;;;29.20;48.07;99896.27;108978;1254;61498;-67
2023/07/30 11:32:26;;;;;;;6.10;3.50;;;;;;;29.20;48.35;99895.36;109042;1254;63856;-58
2023/07/30 11:34:54;;;;;;;7.40;3.70;;;;;;;29.24;48.21;99892.57;108920;1257;58546;-55
2023/07/30 11:37:21;;;;;;;5.40;3.00;;;;;;;29.30;48.39;99892.94;109017;1254;58172;-55